Time;durP1;ratioP1;P1;durP2;ratioP2;P2;SDS_P1;SDS_P2;PMS_P1;PMS_P2;Temp;Humidity;BMP_temperature;BMP_pressure;BME280_temperature;BME280_humidity;BME280_pressure;Samples;Min_cycle;Max_cycle;Signal;HPM_P1;HPM_P2
2023/10/25 00:02:23;;;;;;;24.67;13.10;;;10.80;99.90;;;;;;5113692;28;20051;-76
2023/10/25 00:04:56;;;;;;;30.27;15.02;;;10.80;99.90;;;;;;5112979;28;20093;-76
2023/10/25 00:07:21;;;;;;;;;;;10.80;99.90;;;;;;5112182;28;20023;-82
2023/10/25 00:09:48;;;;;;;29.30;12.80;;;10.80;99.90;;;;;;5113415;28;19957;-78
2023/10/25 00:12:13;;;;;;;25.33;12.30;;;10.80;99.90;;;;;;5112198;28;20019;-82
2023/10/25 00:14:39;;;;;;;24.70;12.32;;;10.80;99.90;;;;;;5113317;28;20100;-81
2023/10/25 00:17:05;;;;;;;28.60;13.43;;;10.80;99.90;;;;;;5113363;28;20068;-82
2023/10/25 00:19:30;;;;;;;23.50;12.63;;;10.80;99.90;;;;;;5112978;28;20095;-76
2023/10/25 00:21:56;;;;;;;21.52;11.73;;;10.80;99.90;;;;;;5113169;28;20036;-77
2023/10/25 00:24:23;;;;;;;26.17;12.40;;;10.80;99.90;;;;;;5111843;28;20380;-77
2023/10/25 00:26:49;;;;;;;20.88;12.50;;;10.90;99.90;;;;;;5113447;28;20024;-83
2023/10/25 00:29:15;;;;;;;26.90;13.57;;;10.80;99.90;;;;;;5112796;28;20104;-77
2023/10/25 00:31:40;;;;;;;24.30;12.98;;;10.90;99.90;;;;;;5112075;28;20492;-82
2023/10/25 00:34:06;;;;;;;25.75;13.02;;;10.80;99.90;;;;;;5111601;28;20011;-83
2023/10/25 00:36:31;;;;;;;22.05;11.68;;;10.80;99.90;;;;;;5111723;28;20384;-77
2023/10/25 00:38:57;;;;;;;18.63;10.95;;;10.80;99.90;;;;;;5111759;28;20057;-83
2023/10/25 00:41:23;;;;;;;21.00;11.95;;;10.80;99.90;;;;;;5111698;28;20031;-76
2023/10/25 00:43:48;;;;;;;19.38;10.38;;;10.90;99.90;;;;;;5111524;28;20016;-76
2023/10/25 00:46:24;;;;;;;21.90;11.05;;;10.90;99.90;;;;;;5111858;28;20481;-82
2023/10/25 00:48:54;;;;;;;19.25;11.52;;;10.80;99.90;;;;;;5112944;28;20094;-82
2023/10/25 00:51:22;;;;;;;23.42;10.23;;;10.80;99.90;;;;;;5111831;28;20031;-76
2023/10/25 00:53:53;;;;;;;19.40;10.43;;;10.90;99.90;;;;;;5113006;28;20020;-76
2023/10/25 00:56:22;;;;;;;20.95;10.40;;;10.90;99.90;;;;;;5112344;28;20450;-82
2023/10/25 00:58:50;;;;;;;21.63;9.35;;;10.80;99.90;;;;;;5111723;28;20426;-83
2023/10/25 01:01:18;;;;;;;19.88;10.88;;;10.90;99.90;;;;;;5112058;28;20031;-83
2023/10/25 01:03:44;;;;;;;18.45;10.13;;;10.80;99.90;;;;;;5112913;28;20102;-77
2023/10/25 01:06:10;;;;;;;20.20;9.35;;;10.90;99.90;;;;;;5112551;28;20542;-77
2023/10/25 01:08:36;;;;;;;21.75;10.77;;;10.90;99.90;;;;;;5112930;28;20023;-77
2023/10/25 01:11:03;;;;;;;19.27;9.45;;;10.90;99.90;;;;;;5111160;28;20024;-82
2023/10/25 01:13:29;;;;;;;16.77;8.95;;;10.80;99.90;;;;;;5111668;28;20019;-82
2023/10/25 01:15:54;;;;;;;20.83;9.63;;;10.90;99.90;;;;;;5112252;28;20546;-77
2023/10/25 01:18:20;;;;;;;19.63;9.75;;;10.90;99.90;;;;;;5112928;28;20020;-77
2023/10/25 01:20:46;;;;;;;19.33;9.88;;;10.90;99.90;;;;;;5116352;28;20039;-77
2023/10/25 01:23:12;;;;;;;21.38;9.35;;;10.90;99.90;;;;;;5115186;28;20786;-82
2023/10/25 01:25:38;;;;;;;17.35;9.05;;;10.90;99.90;;;;;;5114958;28;20393;-82
2023/10/25 01:28:04;;;;;;;21.55;8.65;;;10.90;99.90;;;;;;5115175;28;20074;-83
2023/10/25 01:30:30;;;;;;;15.48;8.73;;;10.90;99.90;;;;;;5114722;28;20543;-83
2023/10/25 01:32:58;;;;;;;20.70;9.45;;;10.90;99.90;;;;;;5127798;27;20028;-83
2023/10/25 01:35:24;;;;;;;16.90;9.73;;;11.00;99.90;;;;;;5114963;28;20024;-77
2023/10/25 01:37:49;;;;;;;15.27;8.13;;;11.00;99.90;;;;;;5116509;28;20032;-77
2023/10/25 01:40:16;;;;;;;18.88;8.18;;;11.00;99.90;;;;;;5114729;28;20024;-77
2023/10/25 01:42:41;;;;;;;22.20;8.38;;;11.00;99.90;;;;;;5115084;28;20020;-77
2023/10/25 01:45:07;;;;;;;19.17;8.65;;;11.00;99.90;;;;;;5114432;28;20054;-77
2023/10/25 01:47:33;;;;;;;19.88;8.68;;;11.00;99.90;;;;;;5115034;28;20065;-83
2023/10/25 01:49:58;;;;;;;17.63;8.02;;;11.00;99.90;;;;;;5114532;28;20024;-77
2023/10/25 01:52:24;;;;;;;35.38;18.05;;;11.10;99.90;;;;;;5148248;27;20019;-77
2023/10/25 01:54:52;;;;;;;14.48;8.73;;;11.10;99.90;;;;;;5114484;28;21628;-83
2023/10/25 01:57:18;;;;;;;19.48;8.55;;;11.10;99.90;;;;;;5115793;28;20024;-83
2023/10/25 01:59:44;;;;;;;20.35;8.23;;;11.10;99.90;;;;;;5114480;28;20540;-77
2023/10/25 02:02:11;;;;;;;22.05;10.35;;;11.10;99.90;;;;;;5115391;28;20043;-82
2023/10/25 02:04:37;;;;;;;21.90;10.50;;;11.10;99.90;;;;;;5115542;28;20032;-81
2023/10/25 02:07:02;;;;;;;21.55;10.88;;;11.10;99.90;;;;;;5107351;28;20537;-81
2023/10/25 02:09:29;;;;;;;34.97;21.67;;;11.10;99.90;;;;;;5111218;28;20049;-76
2023/10/25 02:11:54;;;;;;;19.08;9.05;;;11.10;99.90;;;;;;5114412;28;20156;-76
2023/10/25 02:14:20;;;;;;;20.45;9.55;;;11.10;99.90;;;;;;5114292;28;20476;-81
2023/10/25 02:16:46;;;;;;;17.25;9.30;;;11.10;99.90;;;;;;5115678;28;20513;-77
2023/10/25 02:19:12;;;;;;;20.92;9.63;;;11.10;99.90;;;;;;5113930;28;20031;-82
2023/10/25 02:21:37;;;;;;;20.20;9.98;;;11.10;99.90;;;;;;5114235;28;20024;-77
2023/10/25 02:24:05;;;;;;;20.48;10.40;;;11.10;99.90;;;;;;5113932;28;20543;-77
2023/10/25 02:26:30;;;;;;;27.02;9.60;;;11.00;99.90;;;;;;5113364;28;20016;-78
2023/10/25 02:28:56;;;;;;;14.15;7.13;;;11.00;99.90;;;;;;5113657;28;20073;-78
2023/10/25 02:31:22;;;;;;;13.05;6.30;;;11.00;99.90;;;;;;5114189;28;20039;-82
2023/10/25 02:33:48;;;;;;;13.43;7.20;;;11.00;99.90;;;;;;5115190;28;20099;-78
2023/10/25 02:36:13;;;;;;;17.45;7.90;;;11.00;99.90;;;;;;5113900;28;20106;-77
2023/10/25 02:38:39;;;;;;;16.00;7.30;;;11.00;99.90;;;;;;5114874;28;20453;-77
2023/10/25 02:41:05;;;;;;;18.40;7.10;;;11.00;99.90;;;;;;5114907;28;20027;-82
2023/10/25 02:43:30;;;;;;;14.00;7.75;;;11.00;99.90;;;;;;5113341;28;20030;-81
2023/10/25 02:46:03;;;;;;;18.63;8.93;;;11.00;99.90;;;;;;5113629;28;20522;-82
2023/10/25 02:48:29;;;;;;;21.27;8.48;;;10.90;99.90;;;;;;5113508;28;20030;-77
2023/10/25 02:50:58;;;;;;;22.35;9.30;;;10.90;99.90;;;;;;5113613;28;20024;-77
2023/10/25 02:53:23;;;;;;;18.15;7.55;;;10.90;99.90;;;;;;5113324;28;20102;-81
2023/10/25 02:55:49;;;;;;;22.00;7.38;;;10.90;99.90;;;;;;5114832;28;20516;-76
2023/10/25 02:58:15;;;;;;;18.08;6.70;;;10.90;99.90;;;;;;5113356;28;20016;-82
2023/10/25 03:00:41;;;;;;;14.23;7.50;;;10.90;99.90;;;;;;5114375;28;20055;-77
2023/10/25 03:03:07;;;;;;;11.60;6.82;;;10.90;99.90;;;;;;5113402;28;20015;-81
2023/10/25 03:05:33;;;;;;;14.68;6.85;;;10.90;99.90;;;;;;5114347;28;20023;-76
2023/10/25 03:07:59;;;;;;;17.38;8.43;;;10.90;99.90;;;;;;5113362;28;20016;-76
2023/10/25 03:10:25;;;;;;;16.05;7.80;;;10.90;99.90;;;;;;5114393;28;20020;-79
2023/10/25 03:12:51;;;;;;;12.68;7.13;;;10.90;99.90;;;;;;5113280;28;20019;-81
2023/10/25 03:15:17;;;;;;;16.73;7.53;;;10.80;99.90;;;;;;5112947;28;20058;-81
2023/10/25 03:17:44;;;;;;;17.88;8.30;;;10.80;99.90;;;;;;5114511;28;20373;-81
2023/10/25 03:20:10;;;;;;;19.08;9.32;;;10.80;99.90;;;;;;5112761;28;20389;-77
2023/10/25 03:22:36;;;;;;;18.65;9.50;;;10.80;99.90;;;;;;5113063;28;20077;-81
2023/10/25 03:25:01;;;;;;;14.25;9.48;;;10.80;99.90;;;;;;5113964;28;20489;-77
2023/10/25 03:27:27;;;;;;;23.85;11.57;;;10.80;99.90;;;;;;5112288;28;20049;-81
2023/10/25 03:29:53;;;;;;;22.65;12.43;;;10.80;99.90;;;;;;5113919;28;20048;-82
2023/10/25 03:32:18;;;;;;;26.70;14.15;;;10.70;99.90;;;;;;5112986;28;20110;-82
2023/10/25 03:34:44;;;;;;;25.20;14.85;;;10.70;99.90;;;;;;5113712;28;20027;-82
2023/10/25 03:37:10;;;;;;;26.80;15.27;;;10.70;99.90;;;;;;5114283;28;20062;-76
2023/10/25 03:39:36;;;;;;;33.17;16.73;;;10.70;99.90;;;;;;5108431;28;20028;-82
2023/10/25 03:42:03;;;;;;;27.38;17.33;;;10.70;99.90;;;;;;5113183;28;20035;-82
2023/10/25 03:44:29;;;;;;;30.92;18.33;;;10.70;99.90;;;;;;5113652;28;20026;-77
2023/10/25 03:46:55;;;;;;;33.75;19.80;;;10.70;99.90;;;;;;5112585;28;20019;-82
2023/10/25 03:49:21;;;;;;;38.83;20.67;;;10.70;99.90;;;;;;5112350;28;20491;-77
2023/10/25 03:51:46;;;;;;;37.53;21.08;;;10.70;99.90;;;;;;5112437;28;20023;-82
2023/10/25 03:54:12;;;;;;;41.25;20.95;;;10.70;99.90;;;;;;5113551;28;20062;-83
2023/10/25 03:56:39;;;;;;;37.70;21.70;;;10.70;99.90;;;;;;5112426;28;20015;-81
2023/10/25 03:59:04;;;;;;;37.53;23.13;;;10.70;99.90;;;;;;5112193;28;20098;-77
2023/10/25 04:01:30;;;;;;;40.42;22.73;;;10.70;99.90;;;;;;5103811;28;20135;-77
2023/10/25 04:03:55;;;;;;;37.97;22.45;;;10.70;99.90;;;;;;5113191;28;20469;-82
2023/10/25 04:06:21;;;;;;;47.28;24.50;;;10.60;99.90;;;;;;5113300;28;20080;-78
2023/10/25 04:08:47;;;;;;;47.88;24.95;;;10.60;99.90;;;;;;5126835;27;20024;-77
2023/10/25 04:11:12;;;;;;;43.45;24.92;;;10.60;99.90;;;;;;5113573;28;20380;-76
2023/10/25 04:13:38;;;;;;;47.53;27.20;;;10.60;99.90;;;;;;5113327;28;20020;-79
2023/10/25 04:16:06;;;;;;;44.67;26.25;;;10.60;99.90;;;;;;5112093;28;20030;-77
2023/10/25 04:18:32;;;;;;;44.60;25.00;;;10.60;99.90;;;;;;5108025;28;20047;-77
2023/10/25 04:20:59;;;;;;;36.47;21.40;;;10.60;99.90;;;;;;5111952;28;20031;-82
2023/10/25 04:23:27;;;;;;;37.53;21.35;;;10.60;99.90;;;;;;5113318;28;20372;-77
2023/10/25 04:26:06;;;;;;;34.50;20.08;;;10.50;99.90;;;;;;5113107;28;20411;-81
2023/10/25 04:28:31;;;;;;;27.75;17.38;;;10.50;99.90;;;;;;5111897;28;20030;-77
2023/10/25 04:30:57;;;;;;;29.92;17.83;;;10.50;99.90;;;;;;5111871;28;20055;-76
2023/10/25 04:33:23;;;;;;;25.15;15.60;;;10.50;99.90;;;;;;5111509;28;20016;-80
2023/10/25 04:35:49;;;;;;;21.58;13.68;;;10.50;99.90;;;;;;5105878;28;20051;-81
2023/10/25 04:38:14;;;;;;;19.77;12.40;;;10.40;99.90;;;;;;5107841;28;20028;-76
2023/10/25 04:40:40;;;;;;;20.67;12.30;;;10.40;99.90;;;;;;5112871;28;20036;-77
2023/10/25 04:43:05;;;;;;;18.63;13.68;;;10.40;99.90;;;;;;5109438;28;20370;-82
2023/10/25 04:45:33;;;;;;;23.42;14.18;;;10.40;99.90;;;;;;5104971;28;20073;-76
2023/10/25 04:47:59;;;;;;;19.73;13.40;;;10.40;99.90;;;;;;5109199;28;20019;-77
2023/10/25 04:50:25;;;;;;;24.10;13.93;;;10.40;99.90;;;;;;5111884;28;20035;-82
2023/10/25 04:52:51;;;;;;;22.83;14.80;;;10.40;99.90;;;;;;5110741;28;20059;-82
2023/10/25 04:55:17;;;;;;;22.63;15.05;;;10.40;99.90;;;;;;5114644;28;20024;-81
2023/10/25 04:57:42;;;;;;;24.40;15.65;;;10.30;99.90;;;;;;5112201;28;20107;-77
2023/10/25 05:00:12;;;;;;;27.65;17.05;;;10.40;99.90;;;;;;5110477;28;20031;-83
2023/10/25 05:02:38;;;;;;;29.10;17.38;;;10.30;99.90;;;;;;5106572;28;20027;-82
2023/10/25 05:05:06;;;;;;;26.88;16.00;;;10.30;99.90;;;;;;5103984;28;20032;-82
2023/10/25 05:07:32;;;;;;;25.77;16.52;;;10.30;99.90;;;;;;5112872;28;20422;-82
2023/10/25 05:09:58;;;;;;;28.05;16.25;;;10.30;99.90;;;;;;5111757;28;20022;-82
2023/10/25 05:12:38;;;;;;;28.25;17.00;;;10.30;99.90;;;;;;5115299;28;20099;-82
2023/10/25 05:15:07;;;;;;;26.20;15.65;;;10.20;99.90;;;;;;5114194;28;20076;-77
2023/10/25 05:17:33;;;;;;;23.30;15.63;;;10.20;99.90;;;;;;5109703;28;20022;-77
2023/10/25 05:20:00;;;;;;;20.58;14.20;;;10.20;99.90;;;;;;5104236;28;20023;-77
2023/10/25 05:22:29;;;;;;;24.73;15.82;;;10.20;99.90;;;;;;5102725;27;20043;-77
2023/10/25 05:24:55;;;;;;;26.17;14.88;;;10.20;99.90;;;;;;5110921;27;20019;-77
2023/10/25 05:27:21;;;;;;;21.98;14.25;;;10.20;99.90;;;;;;5107029;27;20496;-76
2023/10/25 05:29:47;;;;;;;21.40;15.05;;;10.20;99.90;;;;;;5108882;27;20146;-76
2023/10/25 05:32:19;;;;;;;26.13;15.27;;;10.20;99.90;;;;;;5109820;27;20031;-77
2023/10/25 05:34:45;;;;;;;28.60;16.80;;;10.10;99.90;;;;;;5103166;28;20032;-76
2023/10/25 05:37:11;;;;;;;27.17;16.33;;;10.20;99.90;;;;;;5099374;28;20036;-77
2023/10/25 05:39:37;;;;;;;25.13;16.80;;;10.10;99.90;;;;;;5107524;28;20467;-78
2023/10/25 05:42:09;;;;;;;32.70;18.13;;;10.10;99.90;;;;;;5111582;27;20060;-77
2023/10/25 05:44:35;;;;;;;36.78;20.95;;;10.10;99.90;;;;;;5105671;28;20472;-77
2023/10/25 05:47:00;;;;;;;33.40;20.50;;;10.10;99.90;;;;;;5111219;28;20034;-77
2023/10/25 05:49:26;;;;;;;36.30;21.27;;;10.10;99.90;;;;;;5113690;28;20734;-77
2023/10/25 05:51:52;;;;;;;38.08;21.23;;;10.10;99.90;;;;;;5112729;28;20095;-77
2023/10/25 05:54:18;;;;;;;36.83;20.42;;;10.10;99.90;;;;;;5112279;28;20055;-77
2023/10/25 05:56:44;;;;;;;41.35;22.92;;;10.10;99.90;;;;;;5103132;28;20032;-77
2023/10/25 05:59:10;;;;;;;41.45;22.40;;;10.00;99.90;;;;;;5113637;28;20462;-77
2023/10/25 06:01:50;;;;;;;34.97;20.88;;;10.00;99.90;;;;;;5114083;28;20122;-77
2023/10/25 06:04:16;;;;;;;38.00;21.30;;;10.00;99.90;;;;;;5103646;27;20055;-77
2023/10/25 06:06:44;;;;;;;42.78;22.65;;;10.00;99.90;;;;;;5113560;27;20122;-77
2023/10/25 06:09:11;;;;;;;36.08;20.67;;;10.00;99.90;;;;;;5111248;27;20019;-76
2023/10/25 06:11:38;;;;;;;38.95;20.08;;;9.90;99.90;;;;;;5111205;27;20035;-77
2023/10/25 06:14:05;;;;;;;35.33;19.90;;;9.90;99.90;;;;;;5112220;28;20063;-77
2023/10/25 06:16:31;;;;;;;33.58;18.58;;;9.90;99.90;;;;;;5112469;27;20043;-77
2023/10/25 06:18:56;;;;;;;29.58;18.95;;;9.90;99.90;;;;;;5112703;28;20400;-77
2023/10/25 06:21:22;;;;;;;35.22;20.15;;;9.80;99.90;;;;;;5109295;28;20118;-77
2023/10/25 06:23:50;;;;;;;34.42;19.48;;;9.80;99.90;;;;;;5104569;28;20103;-77
2023/10/25 06:26:16;;;;;;;33.03;20.25;;;9.80;99.90;;;;;;5113921;27;20097;-77
2023/10/25 06:28:41;;;;;;;33.13;18.05;;;9.80;99.90;;;;;;5113367;27;20223;-77
2023/10/25 06:31:11;;;;;;;27.15;16.80;;;9.70;99.90;;;;;;5107140;27;20131;-77
2023/10/25 06:33:36;;;;;;;27.92;16.95;;;9.70;99.90;;;;;;5111508;28;20039;-77
2023/10/25 06:36:03;;;;;;;25.85;17.23;;;9.70;99.90;;;;;;5111660;28;20046;-82
2023/10/25 06:38:29;;;;;;;29.50;18.73;;;9.70;99.90;;;;;;5127729;27;20072;-82
2023/10/25 06:40:55;;;;;;;30.23;17.02;;;9.80;99.90;;;;;;5107966;28;20070;-82
2023/10/25 06:43:21;;;;;;;28.13;17.90;;;9.70;99.90;;;;;;5110300;28;20028;-82
2023/10/25 06:45:47;;;;;;;27.23;18.17;;;9.70;99.90;;;;;;5113028;28;20112;-81
2023/10/25 06:48:13;;;;;;;25.73;16.52;;;9.70;99.90;;;;;;5112056;28;20020;-81
2023/10/25 06:50:39;;;;;;;23.88;16.00;;;9.60;99.90;;;;;;5112630;28;20027;-82
2023/10/25 06:53:05;;;;;;;23.40;15.95;;;9.60;99.90;;;;;;5114914;27;20024;-82
2023/10/25 06:55:31;;;;;;;20.60;14.85;;;9.60;99.90;;;;;;5113828;28;20027;-81
2023/10/25 06:57:57;;;;;;;25.13;15.57;;;9.60;99.90;;;;;;5113177;28;20023;-77
2023/10/25 07:00:23;;;;;;;21.50;14.30;;;9.60;99.90;;;;;;5106554;28;20028;-81
2023/10/25 07:02:53;;;;;;;17.52;12.65;;;9.60;99.90;;;;;;5108252;28;20103;-77
2023/10/25 07:05:21;;;;;;;17.02;12.07;;;9.60;99.90;;;;;;5111790;28;20409;-82
2023/10/25 07:07:50;;;;;;;16.27;12.40;;;9.60;99.90;;;;;;5112543;28;20115;-81
2023/10/25 07:10:17;;;;;;;15.15;11.48;;;9.60;99.90;;;;;;5112442;28;20047;-82
2023/10/25 07:12:43;;;;;;;16.88;10.25;;;9.60;99.90;;;;;;5112525;28;20097;-77
2023/10/25 07:15:11;;;;;;;18.65;12.48;;;9.60;99.90;;;;;;5112916;28;20020;-82
2023/10/25 07:17:41;;;;;;;16.30;11.15;;;9.60;99.90;;;;;;5114581;28;20039;-82
2023/10/25 07:20:09;;;;;;;10.80;9.00;;;9.60;99.90;;;;;;5105564;28;20023;-77
2023/10/25 07:22:35;;;;;;;14.30;10.13;;;9.50;99.90;;;;;;5114398;28;20059;-77
2023/10/25 07:25:00;;;;;;;21.70;10.60;;;9.60;99.90;;;;;;5113589;28;20051;-77
2023/10/25 07:27:26;;;;;;;12.57;9.32;;;9.60;99.90;;;;;;5112612;28;20507;-78
2023/10/25 07:29:52;;;;;;;15.05;8.65;;;9.60;99.90;;;;;;5112709;28;20047;-82
2023/10/25 07:32:17;;;;;;;13.23;9.13;;;9.60;99.90;;;;;;5114101;28;20144;-77
2023/10/25 07:34:43;;;;;;;10.32;8.45;;;9.60;99.90;;;;;;5112463;28;20481;-77
2023/10/25 07:37:09;;;;;;;11.38;9.20;;;9.50;99.90;;;;;;5114114;28;20030;-78
2023/10/25 07:39:35;;;;;;;10.27;8.48;;;9.50;99.90;;;;;;5113761;28;20022;-82
2023/10/25 07:42:04;;;;;;;9.88;7.82;;;9.50;99.90;;;;;;5113909;28;20035;-82
2023/10/25 07:44:29;;;;;;;10.40;7.82;;;9.60;99.90;;;;;;5113727;28;20046;-82
2023/10/25 07:46:55;;;;;;;10.45;7.57;;;9.50;99.90;;;;;;5113875;28;20094;-77
2023/10/25 07:49:21;;;;;;;9.10;8.07;;;9.60;99.90;;;;;;5113600;28;20073;-82
2023/10/25 07:51:46;;;;;;;11.32;7.30;;;9.50;99.90;;;;;;5113831;28;20107;-77
2023/10/25 07:54:12;;;;;;;9.18;7.82;;;9.60;99.90;;;;;;5112583;28;20030;-83
2023/10/25 07:56:38;;;;;;;9.82;7.68;;;9.60;99.90;;;;;;5112809;28;20047;-77
2023/10/25 07:59:04;;;;;;;11.80;8.13;;;9.60;99.90;;;;;;5112247;28;20058;-77
2023/10/25 08:01:29;;;;;;;11.75;7.93;;;9.60;99.90;;;;;;5113566;28;20063;-77
2023/10/25 08:03:55;;;;;;;11.98;9.20;;;9.60;99.90;;;;;;5113476;28;20023;-77
2023/10/25 08:06:21;;;;;;;12.45;9.98;;;9.60;99.90;;;;;;5111599;28;20106;-82
2023/10/25 08:08:49;;;;;;;13.50;10.13;;;9.60;99.90;;;;;;5113058;28;20099;-77
2023/10/25 08:11:15;;;;;;;16.17;10.30;;;9.60;99.90;;;;;;5113209;28;20020;-82
2023/10/25 08:13:42;;;;;;;13.85;10.50;;;9.60;99.90;;;;;;5112254;28;20430;-81
2023/10/25 08:16:08;;;;;;;16.20;10.88;;;9.60;99.90;;;;;;5111877;28;20020;-77
2023/10/25 08:18:35;;;;;;;15.63;10.75;;;9.50;99.90;;;;;;5111944;28;20016;-77
2023/10/25 08:21:01;;;;;;;17.17;12.38;;;9.60;99.90;;;;;;5113188;28;20032;-77
2023/10/25 08:23:27;;;;;;;18.38;12.57;;;9.60;99.90;;;;;;5111957;28;20016;-77
2023/10/25 08:25:53;;;;;;;17.92;12.00;;;9.60;99.90;;;;;;5113092;28;20514;-82
2023/10/25 08:28:18;;;;;;;16.83;11.63;;;9.60;99.90;;;;;;5111399;28;20023;-77
2023/10/25 08:30:44;;;;;;;20.23;13.23;;;9.60;99.90;;;;;;5111912;28;20393;-82
2023/10/25 08:33:12;;;;;;;22.50;13.13;;;9.60;99.90;;;;;;5111822;28;20023;-81
2023/10/25 08:35:38;;;;;;;20.88;12.10;;;9.60;99.90;;;;;;5113026;28;20031;-77
2023/10/25 08:38:07;;;;;;;20.08;12.48;;;9.60;99.90;;;;;;5112987;28;20024;-77
2023/10/25 08:40:33;;;;;;;21.25;14.82;;;9.60;99.90;;;;;;5113079;28;20034;-77
2023/10/25 08:42:59;;;;;;;22.75;13.55;;;9.60;99.90;;;;;;5111606;28;20028;-77
2023/10/25 08:45:26;;;;;;;22.73;14.25;;;9.60;99.90;;;;;;5113006;28;20027;-82
2023/10/25 08:47:52;;;;;;;21.65;13.80;;;9.60;99.90;;;;;;5113175;28;20039;-77
2023/10/25 08:50:21;;;;;;;18.55;13.07;;;9.60;99.90;;;;;;5111836;28;20016;-82
2023/10/25 08:52:51;;;;;;;25.25;13.43;;;9.60;99.90;;;;;;5111434;28;20093;-82
2023/10/25 08:55:20;;;;;;;19.65;13.05;;;9.60;99.90;;;;;;5111583;28;20016;-77
2023/10/25 08:57:48;;;;;;;16.83;11.98;;;9.60;99.90;;;;;;5111790;28;20035;-77
2023/10/25 09:00:14;;;;;;;19.08;12.80;;;9.60;99.90;;;;;;5111968;28;20419;-77
2023/10/25 09:02:41;;;;;;;18.80;11.70;;;9.70;99.90;;;;;;5111630;28;20485;-82
2023/10/25 09:05:07;;;;;;;17.60;12.00;;;9.60;99.90;;;;;;5111627;28;20058;-77
2023/10/25 09:07:36;;;;;;;16.67;11.55;;;9.60;99.90;;;;;;5112966;28;20107;-82
2023/10/25 09:10:22;;;;;;;15.75;11.50;;;9.70;99.90;;;;;;5113140;28;20046;-81
2023/10/25 09:12:48;;;;;;;15.65;11.63;;;9.70;99.90;;;;;;5099964;28;20016;-77
2023/10/25 09:15:14;;;;;;;15.13;11.27;;;9.70;99.90;;;;;;5111178;28;20102;-82
2023/10/25 09:17:39;;;;;;;16.08;11.48;;;9.70;99.90;;;;;;5111694;28;20028;-81
2023/10/25 09:20:08;;;;;;;16.60;11.43;;;9.70;99.90;;;;;;5111188;28;20062;-81
2023/10/25 09:22:34;;;;;;;20.13;12.40;;;9.70;99.90;;;;;;5111528;28;20024;-81
2023/10/25 09:25:01;;;;;;;23.85;14.75;;;9.70;99.90;;;;;;5112553;28;20072;-77
2023/10/25 09:27:28;;;;;;;20.15;14.80;;;9.70;99.90;;;;;;5112545;28;20027;-81
2023/10/25 09:30:09;;;;;;;45.03;27.67;;;9.70;99.90;;;;;;5112640;28;20416;-82
2023/10/25 09:32:36;;;;;;;61.03;32.70;;;9.70;99.90;;;;;;5111790;28;20058;-81
2023/10/25 09:35:03;;;;;;;29.23;16.90;;;9.70;99.90;;;;;;5111077;28;20020;-82
2023/10/25 09:37:29;;;;;;;24.00;17.85;;;9.70;99.90;;;;;;5111504;28;20028;-82
2023/10/25 09:39:54;;;;;;;23.38;15.93;;;9.70;99.90;;;;;;5113127;28;20023;-82
2023/10/25 09:42:25;;;;;;;19.10;13.90;;;9.70;99.90;;;;;;5116356;28;20036;-82
2023/10/25 09:45:01;;;;;;;26.13;16.33;;;9.70;99.90;;;;;;5114911;28;20015;-82
2023/10/25 09:47:35;;;;;;;20.30;12.77;;;9.70;99.90;;;;;;5115063;28;20020;-82
2023/10/25 09:50:14;;;;;;;20.77;13.00;;;9.70;99.90;;;;;;5116002;28;20032;-81
2023/10/25 09:52:42;;;;;;;20.13;14.25;;;9.70;99.90;;;;;;5114789;28;20019;-81
2023/10/25 09:55:24;;;;;;;18.30;11.40;;;9.70;99.90;;;;;;5115137;28;20033;-77
2023/10/25 09:57:53;;;;;;;22.45;13.95;;;9.60;99.90;;;;;;5114497;28;20015;-77
2023/10/25 10:00:19;;;;;;;32.22;15.48;;;9.70;99.90;;;;;;5115173;28;20033;-82
2023/10/25 10:02:54;;;;;;;98.45;41.72;;;9.70;99.90;;;;;;5116128;28;20023;-82
2023/10/25 10:05:31;;;;;;;35.17;19.63;;;9.70;99.90;;;;;;5115857;28;20054;-77
2023/10/25 10:08:17;;;;;;;78.97;33.15;;;9.70;99.90;;;;;;5115720;28;20069;-82
2023/10/25 10:10:55;;;;;;;67.50;28.52;;;9.70;99.90;;;;;;5115289;28;20018;-82
2023/10/25 10:13:22;;;;;;;58.08;27.88;;;9.70;99.90;;;;;;5114409;28;20062;-77
2023/10/25 10:16:04;;;;;;;56.90;25.88;;;9.70;99.90;;;;;;5115457;28;20023;-77
2023/10/25 10:18:34;;;;;;;50.47;25.23;;;9.70;99.90;;;;;;5115852;28;20069;-77
2023/10/25 10:21:08;;;;;;;58.90;26.83;;;9.70;99.90;;;;;;5114238;28;20549;-82
2023/10/25 10:23:43;;;;;;;80.53;36.13;;;9.70;99.90;;;;;;5114092;28;20026;-77
2023/10/25 10:26:11;;;;;;;119.57;54.22;;;9.70;99.90;;;;;;5115670;28;20034;-77
2023/10/25 10:28:41;;;;;;;85.28;38.22;;;9.70;99.90;;;;;;5113880;28;20039;-77
2023/10/25 10:31:08;;;;;;;82.35;38.83;;;9.60;99.90;;;;;;5115479;28;20050;-77
2023/10/25 10:33:44;;;;;;;74.35;32.88;;;9.70;99.90;;;;;;5114990;28;20061;-81
2023/10/25 10:36:10;;;;;;;78.15;37.03;;;9.60;99.90;;;;;;5115430;28;20023;-81
2023/10/25 10:39:15;;;;;;;60.47;29.83;;;9.60;99.90;;;;;;5115121;28;20020;-82
2023/10/25 10:41:42;;;;;;;98.28;40.88;;;9.60;99.90;;;;;;5113595;28;20543;-77
2023/10/25 10:44:07;;;;;;;75.35;35.88;;;9.60;99.90;;;;;;5115225;27;20024;-77
2023/10/25 10:46:42;;;;;;;81.78;36.97;;;9.50;99.90;;;;;;5113676;28;20020;-81
2023/10/25 10:49:11;;;;;;;94.38;41.70;;;9.50;99.90;;;;;;5115155;28;20048;-82
2023/10/25 10:51:37;;;;;;;82.70;37.05;;;9.50;99.90;;;;;;5114483;28;20020;-82
2023/10/25 10:54:03;;;;;;;51.53;25.83;;;9.50;99.90;;;;;;5115132;28;20413;-77
2023/10/25 10:56:28;;;;;;;78.35;38.42;;;9.40;99.90;;;;;;5113350;28;20084;-82
2023/10/25 10:58:54;;;;;;;55.92;28.02;;;9.40;99.90;;;;;;5113223;28;20381;-82
2023/10/25 11:01:20;;;;;;;49.08;27.75;;;9.40;99.90;;;;;;5114324;28;20024;-78
2023/10/25 11:03:48;;;;;;;67.18;33.25;;;9.40;99.90;;;;;;5114885;28;20443;-82
2023/10/25 11:06:14;;;;;;;67.43;33.38;;;9.40;99.90;;;;;;5100275;28;20026;-82
2023/10/25 11:08:41;;;;;;;41.58;23.08;;;9.40;99.90;;;;;;5114529;28;20098;-82
2023/10/25 11:11:07;;;;;;;57.20;30.55;;;9.40;99.90;;;;;;5113303;28;20019;-77
2023/10/25 11:13:33;;;;;;;63.28;31.88;;;9.40;99.90;;;;;;5112879;28;20015;-81
2023/10/25 11:16:10;;;;;;;43.95;25.58;;;9.40;99.90;;;;;;5113250;28;20028;-82
2023/10/25 11:18:36;;;;;;;43.13;24.35;;;9.40;99.90;;;;;;5114332;28;20411;-82
2023/10/25 11:21:02;;;;;;;37.33;22.75;;;9.40;99.90;;;;;;5146890;27;20035;-82
2023/10/25 11:23:28;;;;;;;36.10;23.10;;;9.50;99.90;;;;;;5107398;27;20039;-81
2023/10/25 11:25:54;;;;;;;28.17;17.10;;;9.50;99.90;;;;;;5111785;28;20119;-82
2023/10/25 11:28:20;;;;;;;26.05;16.27;;;9.50;99.90;;;;;;5111366;28;20064;-82
2023/10/25 11:30:49;;;;;;;25.33;16.60;;;9.50;99.90;;;;;;5111283;27;20035;-82
2023/10/25 11:33:18;;;;;;;27.95;16.92;;;9.60;99.90;;;;;;5103730;28;20031;-81
2023/10/25 11:35:44;;;;;;;27.70;16.20;;;9.60;99.90;;;;;;5110050;27;20040;-82
2023/10/25 11:38:10;;;;;;;23.50;15.02;;;9.70;99.90;;;;;;5109912;28;20031;-81
2023/10/25 11:40:47;;;;;;;24.73;16.40;;;9.70;99.90;;;;;;5112831;27;20054;-81
2023/10/25 11:43:14;;;;;;;22.02;14.35;;;9.70;99.90;;;;;;5109421;28;20035;-81
2023/10/25 11:45:40;;;;;;;31.70;19.38;;;9.80;99.90;;;;;;5110424;28;20024;-81
2023/10/25 11:48:09;;;;;;;27.48;18.77;;;9.80;99.90;;;;;;5110208;28;20357;-81
2023/10/25 11:50:35;;;;;;;22.40;15.23;;;9.80;99.90;;;;;;5110875;28;20034;-82
2023/10/25 11:53:01;;;;;;;21.60;13.75;;;9.80;99.90;;;;;;5112186;27;20020;-82
2023/10/25 11:55:27;;;;;;;20.83;14.18;;;9.90;99.90;;;;;;5112210;28;20027;-81
2023/10/25 11:57:54;;;;;;;14.07;9.85;;;9.90;99.90;;;;;;5108620;28;20016;-81
2023/10/25 12:00:21;;;;;;;13.40;9.82;;;9.90;99.90;;;;;;5107567;28;20031;-82
2023/10/25 12:02:47;;;;;;;12.55;9.68;;;9.90;99.90;;;;;;5111339;28;20023;-81
2023/10/25 12:05:12;;;;;;;11.10;8.68;;;10.00;99.90;;;;;;5110766;28;20327;-81
2023/10/25 12:07:38;;;;;;;14.75;8.90;;;10.00;99.90;;;;;;5110370;28;20012;-81
2023/10/25 12:10:04;;;;;;;9.68;7.57;;;10.00;99.90;;;;;;5110666;28;20082;-82
2023/10/25 12:12:31;;;;;;;10.00;6.40;;;10.00;99.90;;;;;;5112061;28;20028;-82
2023/10/25 12:14:57;;;;;;;10.10;6.97;;;9.90;99.90;;;;;;5109703;28;20027;-82
2023/10/25 12:17:23;;;;;;;8.52;6.03;;;10.00;99.90;;;;;;5111821;28;20464;-82
2023/10/25 12:19:51;;;;;;;6.38;5.63;;;9.90;99.90;;;;;;5110137;28;20030;-82
2023/10/25 12:22:18;;;;;;;6.80;5.82;;;9.90;99.90;;;;;;5110900;28;20070;-82
2023/10/25 12:24:48;;;;;;;6.50;5.70;;;9.80;99.90;;;;;;5105912;28;20065;-82
2023/10/25 12:27:14;;;;;;;8.20;6.90;;;9.80;99.90;;;;;;5110432;28;20042;-82
2023/10/25 12:29:40;;;;;;;8.00;6.88;;;9.80;99.90;;;;;;5108499;27;20047;-82
2023/10/25 12:32:08;;;;;;;7.65;6.85;;;9.80;99.90;;;;;;5110520;28;20100;-81
2023/10/25 12:34:34;;;;;;;9.80;7.80;;;9.80;99.90;;;;;;5110833;28;20423;-82
2023/10/25 12:37:00;;;;;;;8.23;6.63;;;9.80;99.90;;;;;;5089788;28;20043;-83